Time;durP1;ratioP1;P1;durP2;ratioP2;P2;SDS_P1;SDS_P2;PMS_P1;PMS_P2;Temp;Humidity;BMP_temperature;BMP_pressure;BME280_temperature;BME280_humidity;BME280_pressure;Samples;Min_cycle;Max_cycle;Signal;HPM_P1;HPM_P2
2022/10/26 00:00:00;;;;;;;2.53;0.55;;;;;;;13.78;81.03;99194.78;5022738;28;20120;-62
2022/10/26 00:03:04;;;;;;;2.20;0.50;;;;;;;13.69;82.56;99198.97;5005492;28;20587;-61
2022/10/26 00:05:49;;;;;;;4.97;0.70;;;;;;;13.72;83.36;99192.63;5003701;28;20125;-63
2022/10/26 00:08:34;;;;;;;2.58;0.52;;;;;;;13.75;83.33;99195.00;5005429;28;20062;-63
2022/10/26 00:11:19;;;;;;;2.00;0.70;;;;;;;13.77;83.55;99201.00;5003959;28;20077;-63
2022/10/26 00:14:03;;;;;;;3.13;0.70;;;;;;;13.75;83.79;99200.28;5004037;28;20145;-63
2022/10/26 00:16:48;;;;;;;2.55;0.90;;;;;;;13.60;85.22;99199.63;5036072;28;20073;-63
2022/10/26 00:19:34;;;;;;;1.63;0.52;;;;;;;13.64;85.34;99195.81;5032169;28;20049;-63
2022/10/26 00:22:18;;;;;;;2.33;0.65;;;;;;;13.54;85.52;99200.94;5004477;28;20165;-65
2022/10/26 00:25:04;;;;;;;1.27;0.70;;;;;;;13.41;86.14;99211.50;5001707;28;20050;-61
2022/10/26 00:27:48;;;;;;;2.42;0.85;;;;;;;13.33;87.05;99211.22;5000363;28;20778;-62
2022/10/26 00:30:33;;;;;;;1.80;0.70;;;;;;;13.46;86.99;99206.75;5002010;28;20085;-63
2022/10/26 00:33:19;;;;;;;2.70;0.80;;;;;;;13.55;86.19;99199.97;5003573;28;20176;-62
2022/10/26 00:36:03;;;;;;;2.42;0.90;;;;;;;13.43;86.69;99191.19;5004633;28;20045;-63
2022/10/26 00:38:53;;;;;;;1.92;0.65;;;;;;;13.15;88.65;99190.56;5003919;28;20308;-63
2022/10/26 00:41:38;;;;;;;4.82;1.02;;;;;;;13.05;89.17;99193.03;5003169;28;20042;-64
2022/10/26 00:44:48;;;;;;;3.03;0.80;;;;;;;12.98;90.40;99199.66;5004412;28;20048;-66
2022/10/26 00:47:41;;;;;;;1.77;0.95;;;;;;;13.05;89.82;99190.38;5002441;28;20072;-61
2022/10/26 00:50:33;;;;;;;2.83;1.00;;;;;;;13.21;89.20;99192.75;5000252;28;20463;-63
2022/10/26 00:53:21;;;;;;;2.38;1.00;;;;;;;13.32;88.38;99191.13;5015288;28;20524;-64
2022/10/26 00:56:07;;;;;;;2.08;1.08;;;;;;;13.32;88.44;99185.88;5015968;28;20077;-62
2022/10/26 00:58:53;;;;;;;2.90;1.00;;;;;;;13.28;88.67;99182.63;5003125;28;20164;-61
2022/10/26 01:01:42;;;;;;;3.38;1.17;;;;;;;13.13;88.85;99184.56;5036923;28;20053;-61
2022/10/26 01:04:26;;;;;;;3.15;1.00;;;;;;;13.17;88.89;99184.22;5024448;28;20080;-62
2022/10/26 01:07:12;;;;;;;3.08;1.00;;;;;;;13.02;89.92;99180.91;5022998;28;20482;-62
2022/10/26 01:09:57;;;;;;;2.40;0.95;;;;;;;13.16;89.16;99185.19;5022460;28;20034;-63
2022/10/26 01:12:42;;;;;;;1.65;0.82;;;;;;;13.22;88.72;99188.34;5022735;28;20163;-63
2022/10/26 01:15:51;;;;;;;1.33;0.90;;;;;;;13.18;88.94;99178.03;5022664;28;20103;-62
2022/10/26 01:18:45;;;;;;;3.88;1.05;;;;;;;13.20;88.94;99182.34;5022341;28;20044;-63
2022/10/26 01:21:47;;;;;;;1.83;1.00;;;;;;;13.15;89.34;99183.50;5022918;28;20049;-63
2022/10/26 01:25:00;;;;;;;1.80;1.00;;;;;;;13.18;88.88;99171.94;5047920;28;20045;-62
2022/10/26 01:27:49;;;;;;;1.73;0.57;;;;;;;13.20;88.26;99172.66;5022242;28;20099;-63
2022/10/26 01:30:44;;;;;;;4.57;0.98;;;;;;;13.25;87.50;99169.69;5022921;28;20124;-62
2022/10/26 01:34:24;;;;;;;1.38;0.80;;;;;;;13.23;87.66;99174.22;5021986;28;20087;-67
2022/10/26 01:37:16;;;;;;;1.10;0.50;;;;;;;13.16;88.04;99173.81;4982584;28;20061;-64
2022/10/26 01:40:15;;;;;;;1.75;0.43;;;;;;;13.14;88.41;99166.03;4982995;28;20065;-63
2022/10/26 01:43:06;;;;;;;2.40;0.73;;;;;;;13.23;87.70;99168.97;4982891;28;20077;-62
2022/10/26 01:45:52;;;;;;;1.67;0.63;;;;;;;13.23;87.41;99167.19;4980360;28;20050;-63
2022/10/26 01:48:40;;;;;;;2.17;0.90;;;;;;;13.26;87.34;99163.47;4968787;28;20065;-64
2022/10/26 01:51:26;;;;;;;1.73;0.60;;;;;;;13.27;87.02;99155.47;4982905;28;20049;-62
2022/10/26 01:54:11;;;;;;;1.73;0.50;;;;;;;13.27;87.36;99157.25;4969349;28;20138;-62
2022/10/26 01:57:03;;;;;;;5.30;1.00;;;;;;;13.25;88.03;99146.00;4983880;28;20058;-63
2022/10/26 02:00:03;;;;;;;1.80;0.90;;;;;;;13.28;88.34;99157.16;4967701;28;20054;-62
2022/10/26 02:03:16;;;;;;;1.65;0.88;;;;;;;13.31;88.23;99156.06;4968231;28;20058;-62
2022/10/26 02:06:13;;;;;;;4.40;1.25;;;;;;;12.89;90.76;99149.41;4942198;29;20566;-66
2022/10/26 02:09:25;;;;;;;2.90;1.48;;;;;;;12.44;94.08;99157.84;4943204;29;20047;-63
2022/10/26 02:12:29;;;;;;;3.10;1.90;;;;;;;12.50;94.36;99160.03;4917787;29;20535;-64
2022/10/26 02:15:21;;;;;;;3.70;1.98;;;;;;;12.07;97.33;99169.94;4922749;29;20651;-63
2022/10/26 02:18:14;;;;;;;4.60;2.78;;;;;;;12.40;96.02;99161.66;4920310;29;20063;-64
2022/10/26 02:21:17;;;;;;;8.32;2.85;;;;;;;12.06;97.76;99160.38;4922536;29;20512;-66
2022/10/26 02:24:05;;;;;;;4.95;3.10;;;;;;;12.17;96.59;99153.56;4926984;29;20139;-62
2022/10/26 02:26:52;;;;;;;4.13;3.00;;;;;;;12.15;97.22;99161.56;4925413;29;20058;-64
2022/10/26 02:29:40;;;;;;;5.32;3.10;;;;;;;12.26;97.19;99159.97;4926412;29;20071;-63
2022/10/26 02:32:29;;;;;;;5.10;3.17;;;;;;;12.32;95.84;99164.81;4927357;29;20091;-63
2022/10/26 02:35:16;;;;;;;5.70;2.67;;;;;;;12.28;95.95;99161.56;4925920;29;20130;-63
2022/10/26 02:38:04;;;;;;;4.97;3.40;;;;;;;11.46;100.00;99165.22;4939425;28;20090;-64
2022/10/26 02:40:51;;;;;;;5.28;3.63;;;;;;;11.46;100.00;99162.59;4926618;29;20150;-66
2022/10/26 02:43:41;;;;;;;6.13;3.83;;;;;;;11.49;100.00;99162.41;5008327;28;20480;-63
2022/10/26 02:46:27;;;;;;;5.72;4.45;;;;;;;11.41;100.00;99164.69;5050045;28;20069;-65
2022/10/26 02:49:12;;;;;;;6.07;3.75;;;;;;;11.18;100.00;99159.19;5052550;28;20400;-63
2022/10/26 02:52:15;;;;;;;4.90;3.80;;;;;;;11.16;100.00;99159.25;5024915;28;20069;-63
2022/10/26 02:55:06;;;;;;;7.28;4.30;;;;;;;10.97;100.00;99157.00;5026519;28;20554;-66
2022/10/26 02:57:53;;;;;;;;;;;;;;;10.88;100.00;99158.44;5027102;28;20071;-64
2022/10/26 03:00:38;;;;;;;6.32;3.97;;;;;;;10.70;100.00;99157.81;5025740;28;19966;-62
2022/10/26 03:03:24;;;;;;;7.28;3.90;;;;;;;10.58;100.00;99160.25;5024858;28;20037;-62
2022/10/26 03:06:09;;;;;;;6.45;3.80;;;;;;;10.61;100.00;99164.47;5053098;28;20041;-61
2022/10/26 03:08:54;;;;;;;5.30;3.47;;;;;;;10.49;100.00;99155.59;5025929;28;20086;-62
2022/10/26 03:11:39;;;;;;;6.13;3.80;;;;;;;10.49;100.00;99157.38;5026262;28;20480;-63
2022/10/26 03:14:24;;;;;;;7.10;3.28;;;;;;;10.26;100.00;99157.81;5024659;28;20106;-65
2022/10/26 03:17:09;;;;;;;12.50;3.97;;;;;;;10.30;100.00;99151.47;5009883;28;20050;-62
2022/10/26 03:19:54;;;;;;;5.32;2.60;;;;;;;10.54;100.00;99152.69;5038420;28;20526;-63
2022/10/26 03:22:39;;;;;;;5.43;2.92;;;;;;;10.65;100.00;99152.00;5024474;28;20393;-62
2022/10/26 03:25:25;;;;;;;7.25;3.28;;;;;;;10.54;100.00;99155.31;5025595;28;20041;-65
2022/10/26 03:28:09;;;;;;;5.28;2.90;;;;;;;10.81;100.00;99147.50;5024464;28;20038;-62
2022/10/26 03:30:54;;;;;;;8.35;2.67;;;;;;;10.69;100.00;99148.28;5053305;28;20109;-62
2022/10/26 06:53:05;;;;;;;51.83;24.48;;;;;;;9.74;100.00;99241.97;4974404;28;20074;-72
2022/10/26 06:55:51;;;;;;;47.92;23.92;;;;;;;9.72;100.00;99246.47;4956418;28;20137;-70
2022/10/26 06:58:36;;;;;;;46.35;22.67;;;;;;;9.75;100.00;99248.03;4964873;28;20034;-67
2022/10/26 07:01:21;;;;;;;39.05;19.98;;;;;;;9.96;100.00;99255.56;4972195;28;20404;-71
2022/10/26 07:04:05;;;;;;;38.13;19.63;;;;;;;9.86;100.00;99245.66;4977954;28;20121;-70
2022/10/26 07:06:49;;;;;;;33.83;18.00;;;;;;;9.82;100.00;99252.00;4970043;28;20054;-67
2022/10/26 07:09:34;;;;;;;31.98;15.88;;;;;;;9.86;100.00;99250.03;4969542;28;20047;-70
2022/10/26 07:12:19;;;;;;;27.70;14.85;;;;;;;9.92;100.00;99239.19;4971180;28;20050;-69
2022/10/26 07:15:04;;;;;;;24.48;14.30;;;;;;;9.96;100.00;99242.50;4955090;28;20122;-68
2022/10/26 07:17:49;;;;;;;24.08;13.15;;;;;;;10.11;100.00;99246.00;4968898;28;20049;-67
2022/10/26 07:20:37;;;;;;;23.35;13.43;;;;;;;9.96;100.00;99247.72;4970855;28;20108;-66
2022/10/26 07:23:22;;;;;;;25.30;14.00;;;;;;;10.03;100.00;99242.97;4971659;28;20098;-64
2022/10/26 07:26:07;;;;;;;32.60;15.60;;;;;;;10.04;100.00;99249.88;4976761;28;20042;-66
2022/10/26 07:28:52;;;;;;;27.90;14.30;;;;;;;9.92;100.00;99254.09;4971506;28;20039;-64
2022/10/26 07:31:37;;;;;;;27.98;14.07;;;;;;;10.14;100.00;99260.66;4974208;28;20049;-64
2022/10/26 07:34:22;;;;;;;29.67;15.15;;;;;;;10.10;100.00;99254.78;4977559;28;20449;-64
2022/10/26 07:37:06;;;;;;;28.45;14.43;;;;;;;10.10;100.00;99253.00;4974751;28;20122;-60
2022/10/26 07:39:51;;;;;;;30.40;15.07;;;;;;;10.07;100.00;99249.72;4972101;28;20039;-65
2022/10/26 07:42:36;;;;;;;33.65;16.90;;;;;;;10.19;100.00;99259.47;4973264;28;20647;-62
2022/10/26 07:45:20;;;;;;;37.45;18.10;;;;;;;10.23;100.00;99250.50;4972279;28;20047;-61
2022/10/26 07:48:05;;;;;;;43.35;21.42;;;;;;;10.34;100.00;99256.88;4972840;28;20073;-64
2022/10/26 07:50:51;;;;;;;45.00;21.23;;;;;;;10.39;100.00;99257.44;4974173;28;20169;-63
2022/10/26 07:53:36;;;;;;;48.75;23.52;;;;;;;10.44;100.00;99252.78;4990756;28;20464;-64
2022/10/26 07:56:21;;;;;;;48.60;21.20;;;;;;;10.50;100.00;99262.06;4984633;28;20046;-62
2022/10/26 07:59:06;;;;;;;44.67;17.70;;;;;;;10.58;100.00;99264.22;4988893;28;20141;-66
2022/10/26 08:01:51;;;;;;;33.85;15.95;;;;;;;10.64;100.00;99269.06;4973971;28;20046;-72
2022/10/26 08:04:36;;;;;;;33.40;16.00;;;;;;;10.58;100.00;99266.81;4972214;28;20121;-69
2022/10/26 08:07:21;;;;;;;24.08;12.68;;;;;;;10.55;100.00;99262.63;4988094;28;20066;-62
2022/10/26 08:10:06;;;;;;;27.40;12.32;;;;;;;10.71;100.00;99269.53;4990655;28;20196;-61
2022/10/26 08:12:51;;;;;;;24.60;11.88;;;;;;;10.74;100.00;99268.53;4987674;28;20648;-64
2022/10/26 08:15:36;;;;;;;23.95;11.93;;;;;;;10.92;100.00;99266.53;4974959;28;20119;-61
2022/10/26 08:18:21;;;;;;;23.73;12.13;;;;;;;10.85;100.00;99260.84;4978934;28;20112;-62
2022/10/26 08:21:10;;;;;;;21.83;10.80;;;;;;;10.97;100.00;99259.22;4975694;28;20105;-64
2022/10/26 08:23:55;;;;;;;24.42;11.95;;;;;;;11.16;100.00;99265.94;4989409;28;20074;-65
2022/10/26 08:26:40;;;;;;;20.50;11.55;;;;;;;11.20;100.00;99267.44;4988565;28;20121;-66
2022/10/26 08:29:24;;;;;;;19.60;10.52;;;;;;;11.20;100.00;99262.19;4986749;28;20481;-66
2022/10/26 08:32:09;;;;;;;19.60;9.38;;;;;;;11.41;100.00;99265.22;4991751;28;20137;-69
2022/10/26 08:34:54;;;;;;;26.83;9.57;;;;;;;11.32;100.00;99263.19;4988156;28;20129;-62
2022/10/26 08:37:38;;;;;;;20.90;9.57;;;;;;;11.46;100.00;99267.53;4989137;28;20048;-61
2022/10/26 08:40:27;;;;;;;21.27;9.57;;;;;;;11.66;100.00;99273.28;4977638;28;20129;-60
2022/10/26 08:43:18;;;;;;;16.38;8.77;;;;;;;11.91;100.00;99283.00;4988048;28;20088;-63
2022/10/26 08:46:10;;;;;;;20.77;9.30;;;;;;;11.89;100.00;99284.06;4993024;28;20042;-61
2022/10/26 08:48:57;;;;;;;;;;;;;;;11.89;100.00;99279.66;4998392;28;20124;-63
2022/10/26 08:51:42;;;;;;;22.23;10.68;;;;;;;11.76;100.00;99276.16;4978001;28;20218;-61
2022/10/26 08:54:38;;;;;;;29.65;11.00;;;;;;;11.73;100.00;99273.72;4974259;28;20042;-62
2022/10/26 08:57:34;;;;;;;29.98;14.57;;;;;;;11.77;100.00;99280.44;4989459;28;20050;-61
2022/10/26 09:00:25;;;;;;;30.60;13.63;;;;;;;11.77;100.00;99277.81;4990626;28;20423;-62
2022/10/26 09:03:14;;;;;;;32.72;14.23;;;;;;;11.65;100.00;99277.69;4990194;28;20285;-65
2022/10/26 09:06:17;;;;;;;38.08;16.55;;;;;;;11.71;100.00;99279.09;4988417;28;20073;-61
2022/10/26 09:09:08;;;;;;;40.00;16.95;;;;;;;11.72;100.00;99280.75;4991816;28;20493;-64
2022/10/26 09:11:53;;;;;;;36.92;16.55;;;;;;;11.76;100.00;99274.38;4993772;28;20038;-63
2022/10/26 09:14:59;;;;;;;36.45;15.82;;;;;;;11.25;100.00;99278.47;4990971;28;20497;-63
2022/10/26 09:18:15;;;;;;;31.92;14.15;;;;;;;11.15;100.00;99278.22;4994706;28;20050;-65
2022/10/26 09:21:17;;;;;;;28.00;13.68;;;;;;;11.23;100.00;99287.38;4895698;29;20164;-62
2022/10/26 09:24:15;;;;;;;22.65;12.02;;;;;;;11.23;100.00;99290.84;4897146;29;20220;-67
2022/10/26 09:27:27;;;;;;;25.75;11.30;;;;;;;11.25;100.00;99291.59;4902934;29;20052;-63
2022/10/26 09:30:17;;;;;;;24.75;12.60;;;;;;;11.21;100.00;99306.66;4896116;29;20076;-68
2022/10/26 09:33:13;;;;;;;22.77;11.80;;;;;;;11.36;100.00;99305.81;4896019;29;20609;-68
2022/10/26 09:36:12;;;;;;;21.35;11.82;;;;;;;11.49;100.00;99305.88;4905406;29;20163;-50
2022/10/26 09:39:22;;;;;;;19.92;10.50;;;;;;;11.58;100.00;99308.75;4896562;29;20127;-66
2022/10/26 09:42:28;;;;;;;26.80;10.25;;;;;;;11.36;100.00;99306.63;4897539;29;20044;-67
2022/10/26 09:45:21;;;;;;;23.23;10.85;;;;;;;11.74;100.00;99301.66;4897689;29;20132;-70
2022/10/26 09:48:15;;;;;;;26.77;11.50;;;;;;;12.38;100.00;99323.78;4898804;29;20076;-68
2022/10/26 09:50:59;;;;;;;22.75;9.73;;;;;;;13.69;100.00;99327.97;4899901;29;20104;-58
2022/10/26 09:53:44;;;;;;;20.88;9.75;;;;;;;13.91;100.00;99329.00;4898910;29;20475;-64
2022/10/26 09:56:30;;;;;;;27.90;13.27;;;;;;;13.26;100.00;99332.69;4922966;28;20077;-66
2022/10/26 09:59:18;;;;;;;24.80;11.50;;;;;;;14.08;100.00;99327.78;4968468;28;20503;-58
2022/10/26 10:02:33;;;;;;;20.98;10.88;;;;;;;15.09;100.00;99323.75;4975515;28;20042;-66
2022/10/26 10:05:30;;;;;;;18.15;9.60;;;;;;;15.93;100.00;99329.44;4994641;28;20382;-61
2022/10/26 10:08:17;;;;;;;22.38;11.18;;;;;;;16.16;95.62;99330.19;4992458;28;20500;-46
2022/10/26 10:11:08;;;;;;;23.00;13.13;;;;;;;14.96;100.00;99342.34;4994703;28;20157;-55
2022/10/26 10:13:53;;;;;;;18.17;9.45;;;;;;;15.36;100.00;99351.53;4992693;28;20077;-46
2022/10/26 10:16:37;;;;;;;26.55;13.52;;;;;;;15.44;100.00;99358.88;4997230;28;20590;-50
2022/10/26 10:19:26;;;;;;;26.02;11.82;;;;;;;15.17;100.00;99355.66;4997651;28;20420;-51
2022/10/26 10:22:18;;;;;;;30.73;15.02;;;;;;;14.78;100.00;99370.00;4991343;28;20043;-50
2022/10/26 10:25:22;;;;;;;25.52;14.40;;;;;;;14.00;100.00;99359.94;4977064;28;20085;-56
2022/10/26 10:28:36;;;;;;;29.00;15.57;;;;;;;13.46;100.00;99366.44;4991695;28;20101;-54
2022/10/26 10:31:27;;;;;;;28.77;14.52;;;;;;;13.49;100.00;99361.78;4945240;28;20058;-52
2022/10/26 10:34:16;;;;;;;32.35;16.13;;;;;;;13.25;100.00;99354.66;4930882;28;20062;-49
2022/10/26 10:37:01;;;;;;;29.65;14.68;;;;;;;14.25;100.00;99341.47;4931487;28;20039;-54
2022/10/26 10:39:46;;;;;;;28.42;14.02;;;;;;;13.23;100.00;99343.44;4945918;28;20051;-52
2022/10/26 10:42:37;;;;;;;33.67;16.75;;;;;;;13.24;100.00;99337.22;4946649;28;20117;-52
2022/10/26 10:45:25;;;;;;;37.58;19.48;;;;;;;12.62;100.00;99320.44;4942432;28;20088;-56
2022/10/26 10:48:19;;;;;;;35.33;16.95;;;;;;;12.47;100.00;99320.53;4944251;28;20517;-55
2022/10/26 10:51:11;;;;;;;28.65;15.02;;;;;;;12.35;100.00;99316.97;4945075;28;20051;-53
2022/10/26 10:53:57;;;;;;;32.13;15.77;;;;;;;12.48;100.00;99316.97;4944388;28;20143;-54
2022/10/26 10:56:49;;;;;;;34.95;17.65;;;;;;;11.97;100.00;99326.41;4930771;28;20098;-49
2022/10/26 11:00:03;;;;;;;39.13;19.52;;;;;;;12.01;100.00;99321.81;4944497;28;20057;-49
2022/10/26 11:03:01;;;;;;;37.33;18.08;;;;;;;12.26;100.00;99317.56;4946553;28;20525;-48
2022/10/26 11:06:08;;;;;;;31.73;15.98;;;;;;;12.30;100.00;99327.78;4946459;28;20495;-52
2022/10/26 11:09:03;;;;;;;32.53;16.67;;;;;;;12.46;100.00;99336.41;4977778;28;20556;-56
2022/10/26 11:11:54;;;;;;;29.38;14.82;;;;;;;12.38;100.00;99332.53;4990715;28;20493;-55
2022/10/26 11:14:51;;;;;;;33.47;15.63;;;;;;;12.56;100.00;99324.34;4991111;28;20434;-52
2022/10/26 11:17:54;;;;;;;26.02;12.98;;;;;;;12.94;100.00;99344.50;4971562;28;20097;-50
2022/10/26 11:20:48;;;;;;;22.15;12.10;;;;;;;12.93;100.00;99347.25;4974103;28;20065;-43
2022/10/26 11:23:56;;;;;;;30.08;15.43;;;;;;;13.11;100.00;99339.88;4969976;28;20599;-47
2022/10/26 11:26:54;;;;;;;27.20;13.85;;;;;;;12.94;100.00;99336.63;4970493;28;20077;-55
2022/10/26 11:30:04;;;;;;;30.10;16.17;;;;;;;12.67;100.00;99339.38;4970759;28;20462;-53
2022/10/26 11:32:55;;;;;;;30.48;15.60;;;;;;;12.73;100.00;99336.31;4973817;28;20062;-51
2022/10/26 11:35:58;;;;;;;30.38;16.23;;;;;;;12.76;100.00;99333.47;4975510;28;20125;-51
2022/10/26 11:38:49;;;;;;;36.05;17.17;;;;;;;12.73;100.00;99336.31;4969884;28;20085;-48
2022/10/26 11:41:47;;;;;;;41.92;19.25;;;;;;;12.51;100.00;99340.41;4969822;28;20102;-49
2022/10/26 11:44:56;;;;;;;34.42;17.27;;;;;;;12.60;100.00;99344.19;4974482;28;20049;-46
2022/10/26 11:47:51;;;;;;;35.92;15.75;;;;;;;12.58;100.00;99335.59;4973284;28;20046;-46
2022/10/26 11:50:42;;;;;;;33.42;15.23;;;;;;;12.84;100.00;99342.63;4977481;28;20046;-52
2022/10/26 11:53:32;;;;;;;33.55;15.63;;;;;;;12.87;100.00;99352.94;4988009;28;20452;-51
2022/10/26 11:56:30;;;;;;;31.55;15.57;;;;;;;12.71;100.00;99347.91;4994641;28;20096;-52
2022/10/26 11:59:24;;;;;;;32.15;16.60;;;;;;;12.91;100.00;99352.63;4975975;28;20890;-52
2022/10/26 12:02:23;;;;;;;29.80;15.00;;;;;;;13.27;100.00;99354.56;4989438;28;20512;-54
2022/10/26 12:05:16;;;;;;;32.95;14.60;;;;;;;13.74;100.00;99351.31;4993503;28;20183;-47
2022/10/26 12:08:17;;;;;;;30.02;14.80;;;;;;;13.28;100.00;99362.38;4979814;28;20080;-46
2022/10/26 12:11:19;;;;;;;23.73;13.23;;;;;;;14.33;100.00;99359.34;4991190;28;20101;-45
2022/10/26 12:14:03;;;;;;;26.45;13.43;;;;;;;13.97;100.00;99367.25;4993666;28;20388;-46
2022/10/26 12:16:56;;;;;;;24.63;13.85;;;;;;;14.31;100.00;99374.44;4990846;28;20049;-49
2022/10/26 12:20:12;;;;;;;20.38;11.32;;;;;;;14.49;100.00;99364.31;4990425;28;20065;-48
2022/10/26 12:22:58;;;;;;;20.92;11.73;;;;;;;15.48;100.00;99366.44;4991996;28;20539;-51
2022/10/26 12:25:42;;;;;;;27.63;13.00;;;;;;;14.07;100.00;99376.13;4989854;28;20044;-49
2022/10/26 12:28:36;;;;;;;23.55;12.48;;;;;;;14.04;100.00;99369.31;4995167;28;20070;-48
2022/10/26 12:31:36;;;;;;;21.08;10.32;;;;;;;14.05;100.00;99372.78;4993291;28;20125;-53
2022/10/26 12:34:29;;;;;;;21.30;11.32;;;;;;;13.52;100.00;99376.53;4992545;28;20524;-56
2022/10/26 12:37:28;;;;;;;22.13;11.55;;;;;;;12.60;100.00;99378.38;4991933;28;20074;-54
2022/10/26 12:40:40;;;;;;;20.95;11.57;;;;;;;12.31;100.00;99376.75;4992312;28;20549;-52
2022/10/26 12:43:24;;;;;;;20.40;11.43;;;;;;;12.27;100.00;99380.50;4911148;29;20134;-52
2022/10/26 12:46:11;;;;;;;28.55;11.68;;;;;;;12.26;100.00;99377.97;4920272;29;20183;-53
2022/10/26 12:48:58;;;;;;;24.95;12.57;;;;;;;12.22;100.00;99382.63;4915317;29;20083;-53
2022/10/26 12:51:43;;;;;;;22.25;10.60;;;;;;;11.91;100.00;99381.97;4915464;29;20095;-52
2022/10/26 12:54:40;;;;;;;22.15;9.88;;;;;;;11.93;100.00;99390.59;4921983;29;20507;-52
2022/10/26 12:57:37;;;;;;;23.33;10.55;;;;;;;11.86;100.00;99387.50;4914028;29;20135;-50
2022/10/26 13:00:25;;;;;;;21.42;11.27;;;;;;;11.89;100.00;99384.69;4909801;29;20060;-53
2022/10/26 13:03:28;;;;;;;24.25;11.35;;;;;;;11.94;100.00;99379.97;4912731;29;20055;-53
2022/10/26 13:06:19;;;;;;;23.27;11.18;;;;;;;11.98;100.00;99383.22;4913609;29;20119;-51
2022/10/26 13:09:29;;;;;;;24.23;12.00;;;;;;;11.97;100.00;99380.69;4913492;29;20478;-53
2022/10/26 13:12:14;;;;;;;20.27;11.98;;;;;;;11.84;100.00;99376.25;4915390;29;20567;-53
2022/10/26 13:15:21;;;;;;;26.35;12.05;;;;;;;11.88;100.00;99372.47;4916944;29;20107;-55
2022/10/26 13:18:05;;;;;;;23.98;12.32;;;;;;;11.84;100.00;99378.88;4914238;29;20661;-48
2022/10/26 13:21:12;;;;;;;23.17;10.95;;;;;;;11.95;100.00;99370.31;4975236;28;20058;-53
2022/10/26 13:24:04;;;;;;;29.63;13.98;;;;;;;12.08;100.00;99370.38;4993172;28;20057;-50
2022/10/26 13:27:04;;;;;;;25.73;13.13;;;;;;;12.16;100.00;99369.88;4993226;28;20042;-57
2022/10/26 13:30:07;;;;;;;28.98;15.32;;;;;;;12.23;100.00;99373.78;4989933;28;20068;-54
2022/10/26 13:32:55;;;;;;;26.20;14.82;;;;;;;12.15;100.00;99371.66;4990252;28;20046;-59
2022/10/26 13:35:42;;;;;;;33.67;17.15;;;;;;;12.11;100.00;99371.97;4994211;28;20189;-55
2022/10/26 13:38:31;;;;;;;36.00;17.48;;;;;;;12.25;100.00;99371.91;4977124;28;20049;-52
2022/10/26 13:41:24;;;;;;;32.13;15.75;;;;;;;12.27;100.00;99364.75;4984589;28;20484;-51
2022/10/26 13:44:24;;;;;;;28.85;14.02;;;;;;;12.25;100.00;99361.41;4989780;28;20046;-51
2022/10/26 13:47:15;;;;;;;30.58;15.13;;;;;;;11.87;100.00;99368.19;4990744;28;20060;-48
2022/10/26 13:50:06;;;;;;;29.90;15.35;;;;;;;11.84;100.00;99376.25;4990461;28;20042;-52
2022/10/26 13:52:54;;;;;;;28.83;14.82;;;;;;;11.73;100.00;99373.47;4993318;28;20116;-57
2022/10/26 13:55:50;;;;;;;27.90;13.70;;;;;;;11.61;100.00;99372.47;4994232;28;20042;-53
2022/10/26 13:59:02;;;;;;;28.77;14.02;;;;;;;11.50;100.00;99373.16;4996901;28;20054;-52
2022/10/26 14:02:04;;;;;;;31.63;15.65;;;;;;;11.67;100.00;99367.66;4989647;28;20485;-51
2022/10/26 14:05:01;;;;;;;30.15;14.38;;;;;;;11.89;100.00;99375.94;4982207;28;20054;-55
2022/10/26 14:07:55;;;;;;;31.10;14.88;;;;;;;11.82;100.00;99367.63;4990622;28;20065;-52
2022/10/26 14:10:44;;;;;;;30.35;15.30;;;;;;;11.95;100.00;99365.91;4989579;28;20066;-52
2022/10/26 14:13:30;;;;;;;39.30;18.17;;;;;;;12.00;100.00;99378.72;4991469;28;20088;-51
2022/10/26 14:16:20;;;;;;;34.88;16.20;;;;;;;12.00;100.00;99388.38;4989754;28;20631;-50
2022/10/26 14:19:04;;;;;;;40.90;16.85;;;;;;;11.81;100.00;99386.94;4999610;28;20081;-56
2022/10/26 14:21:49;;;;;;;37.35;16.45;;;;;;;11.75;100.00;99382.09;4993339;28;20046;-50
2022/10/26 14:24:39;;;;;;;27.95;13.65;;;;;;;11.85;100.00;99384.97;4994027;28;20553;-56
2022/10/26 14:27:37;;;;;;;33.15;16.60;;;;;;;11.83;100.00;99385.91;5001373;28;20643;-49
2022/10/26 14:30:26;;;;;;;37.25;17.63;;;;;;;11.74;100.00;99388.28;4978328;28;20049;-50
2022/10/26 14:33:19;;;;;;;40.08;17.70;;;;;;;11.79;100.00;99391.44;4982397;28;20651;-53
2022/10/26 14:36:05;;;;;;;36.83;17.95;;;;;;;11.86;100.00;99392.75;4997532;28;20064;-51
2022/10/26 14:38:57;;;;;;;42.33;17.58;;;;;;;11.93;100.00;99398.47;4993983;28;20050;-55
2022/10/26 14:41:41;;;;;;;;;;;;;;;11.85;100.00;99398.09;4978477;28;20405;-54
2022/10/26 14:44:27;;;;;;;33.60;17.05;;;;;;;11.79;100.00;99399.31;4993362;28;20051;-52
2022/10/26 14:47:31;;;;;;;32.83;16.42;;;;;;;11.86;100.00;99400.63;4994107;28;20108;-53
2022/10/26 14:50:18;;;;;;;39.00;17.48;;;;;;;11.86;100.00;99415.53;4995031;28;20042;-53
2022/10/26 14:53:13;;;;;;;39.38;18.88;;;;;;;11.93;100.00;99417.66;4977663;28;20848;-51
2022/10/26 14:55:59;;;;;;;43.65;18.20;;;;;;;11.89;100.00;99421.44;4979500;28;20049;-56
2022/10/26 14:58:43;;;;;;;38.20;18.80;;;;;;;11.85;100.00;99414.69;4980739;28;20117;-53
2022/10/26 15:01:30;;;;;;;42.15;18.15;;;;;;;11.88;100.00;99411.03;4992951;28;20113;-50
2022/10/26 15:04:36;;;;;;;43.20;19.20;;;;;;;11.83;100.00;99412.16;4991839;28;20057;-48
2022/10/26 15:07:20;;;;;;;45.92;18.80;;;;;;;11.73;100.00;99399.72;4990609;28;20525;-54
2022/10/26 15:10:05;;;;;;;53.28;22.83;;;;;;;11.67;100.00;99407.03;5002566;28;20045;-49
2022/10/26 15:12:50;;;;;;;48.55;21.00;;;;;;;11.68;100.00;99405.25;4998007;28;20038;-52
2022/10/26 15:15:36;;;;;;;42.70;19.60;;;;;;;11.66;100.00;99404.50;4978097;28;20074;-56
2022/10/26 15:18:26;;;;;;;52.20;20.45;;;;;;;11.67;100.00;99409.66;4995539;28;20045;-51
2022/10/26 15:21:22;;;;;;;40.35;18.45;;;;;;;11.62;100.00;99410.91;4977735;28;20489;-50
2022/10/26 15:24:37;;;;;;;48.50;18.30;;;;;;;11.60;100.00;99415.41;4994150;28;20492;-50
2022/10/26 15:27:23;;;;;;;48.58;19.73;;;;;;;11.72;100.00;99405.91;4992981;28;20045;-53
2022/10/26 15:30:18;;;;;;;43.08;20.63;;;;;;;11.66;100.00;99413.22;4994225;28;20088;-52
2022/10/26 15:33:20;;;;;;;44.47;17.95;;;;;;;11.56;100.00;99412.13;4993146;28;20550;-54
2022/10/26 15:36:08;;;;;;;46.55;19.38;;;;;;;11.48;100.00;99422.25;4987618;28;20140;-55
2022/10/26 15:38:54;;;;;;;39.53;17.58;;;;;;;11.55;100.00;99436.69;4997099;28;20049;-53
2022/10/26 15:41:45;;;;;;;44.45;21.80;;;;;;;11.57;100.00;99434.81;4993168;28;20477;-54
2022/10/26 15:44:29;;;;;;;40.28;18.08;;;;;;;11.51;100.00;99435.16;4994127;28;20168;-53
2022/10/26 15:47:18;;;;;;;47.65;20.00;;;;;;;11.50;100.00;99439.59;4991311;28;20477;-58
2022/10/26 15:50:03;;;;;;;43.13;17.83;;;;;;;11.66;100.00;99449.13;4994755;28;20041;-52
2022/10/26 15:52:48;;;;;;;42.17;20.55;;;;;;;11.73;100.00;99449.59;4992278;28;20037;-44
2022/10/26 15:55:32;;;;;;;31.27;12.75;;;;;;;12.02;100.00;99449.53;4983222;28;20344;-59
2022/10/26 15:58:17;;;;;;;47.53;18.48;;;;;;;12.13;100.00;99446.22;4982769;28;20133;-60
2022/10/26 16:01:01;;;;;;;43.83;18.27;;;;;;;12.13;100.00;99454.13;4997741;28;20425;-60
2022/10/26 16:03:50;;;;;;;37.83;16.52;;;;;;;12.21;100.00;99461.53;4994930;28;20121;-59
2022/10/26 16:06:39;;;;;;;26.40;13.32;;;;;;;12.31;100.00;99459.97;4963345;28;20081;-61
2022/10/26 16:09:24;;;;;;;27.48;13.65;;;;;;;12.34;100.00;99459.75;4950014;28;20051;-59
2022/10/26 16:12:12;;;;;;;48.45;19.98;;;;;;;12.27;100.00;99456.69;4965188;28;20046;-61
2022/10/26 16:14:59;;;;;;;46.13;19.95;;;;;;;12.20;100.00;99455.41;4961662;28;20058;-60
2022/10/26 16:17:44;;;;;;;43.20;19.67;;;;;;;12.18;100.00;99460.78;4963325;28;20050;-61
2022/10/26 16:20:29;;;;;;;43.55;18.73;;;;;;;12.23;100.00;99454.38;4961127;28;20074;-60
2022/10/26 16:23:16;;;;;;;49.72;22.20;;;;;;;12.24;100.00;99449.00;4959437;28;20117;-59
2022/10/26 16:26:03;;;;;;;51.72;21.50;;;;;;;12.06;100.00;99446.59;4961936;28;20059;-59